createdAt,value
2022-11-20T00:00:36.781Z,2.4
2022-11-20T00:01:45.916Z,2.4
2022-11-20T00:02:55.042Z,2.4
2022-11-20T00:04:04.185Z,2.4
2022-11-20T00:05:14.306Z,2.4
2022-11-20T00:06:24.412Z,2.4
2022-11-20T00:07:34.537Z,2.5
2022-11-20T00:08:44.662Z,2.6
2022-11-20T00:09:54.771Z,2.6
2022-11-20T00:11:04.895Z,2.6
2022-11-20T00:12:15.016Z,2.7
2022-11-20T00:13:25.123Z,2.7
2022-11-20T00:14:35.250Z,2.6
2022-11-20T00:15:45.373Z,2.6
2022-11-20T00:16:55.000Z,2.6
2022-11-20T00:18:05.601Z,2.6
2022-11-20T00:19:14.740Z,2.7
2022-11-20T00:20:24.852Z,2.7
2022-11-20T00:21:34.978Z,2.8
2022-11-20T00:22:45.085Z,2.8
2022-11-20T00:23:55.206Z,2.8
2022-11-20T00:25:05.331Z,2.7
2022-11-20T00:26:15.457Z,2.7
2022-11-20T00:27:25.719Z,2.7
2022-11-20T00:28:34.857Z,2.7
2022-11-20T00:29:44.960Z,2.7
2022-11-20T00:30:54.116Z,2.7
2022-11-20T00:32:03.250Z,2.7
2022-11-20T00:33:13.372Z,2.8
2022-11-20T00:34:23.477Z,2.7
2022-11-20T00:35:33.605Z,2.7
2022-11-20T00:36:43.709Z,2.8
2022-11-20T00:37:53.835Z,2.8
2022-11-20T00:39:03.953Z,2.8
2022-11-20T00:40:14.073Z,2.9
2022-11-20T00:41:24.190Z,2.9
2022-11-20T00:42:34.314Z,3
2022-11-20T00:43:44.422Z,2.9
2022-11-20T00:44:54.548Z,2.9
2022-11-20T00:46:04.671Z,3
2022-11-20T00:47:14.900Z,3
2022-11-20T00:48:25.030Z,2.9
2022-11-20T00:49:35.135Z,2.9
2022-11-20T00:50:45.260Z,2.9
2022-11-20T00:51:55.384Z,3
2022-11-20T00:53:05.505Z,3
2022-11-20T00:54:15.614Z,3
2022-11-20T00:55:24.000Z,3
2022-11-20T00:56:34.997Z,3
2022-11-20T00:57:45.114Z,3
2022-11-20T00:58:55.232Z,2.9
2022-11-20T01:00:04.369Z,2.9
2022-11-20T01:01:13.504Z,2.8
2022-11-20T01:02:23.636Z,2.8
2022-11-20T01:03:33.741Z,2.8
2022-11-20T01:04:43.865Z,2.7
2022-11-20T01:05:53.976Z,2.7
2022-11-20T01:07:04.097Z,2.6
2022-11-20T01:08:14.222Z,2.6
2022-11-20T01:09:24.348Z,2.5
2022-11-20T01:10:34.455Z,2.5
2022-11-20T01:11:44.582Z,2.4
2022-11-20T01:12:54.691Z,2.4
2022-11-20T01:14:04.811Z,2.4
2022-11-20T01:15:14.925Z,2.4
2022-11-20T01:16:24.061Z,2.5
2022-11-20T01:17:34.190Z,2.5
2022-11-20T01:18:44.310Z,2.4
2022-11-20T01:19:54.420Z,2.5
2022-11-20T01:21:04.547Z,2.5
2022-11-20T01:22:14.654Z,2.5
2022-11-20T01:23:24.780Z,2.5
2022-11-20T01:24:33.918Z,2.4
2022-11-20T01:25:43.050Z,2.4
2022-11-20T01:26:52.207Z,2.4
2022-11-20T01:28:01.328Z,2.4
2022-11-20T01:29:11.449Z,2.5
2022-11-20T01:30:21.569Z,2.5
2022-11-20T01:31:31.696Z,2.6
2022-11-20T01:32:41.805Z,2.5
2022-11-20T01:33:51.926Z,2.5
2022-11-20T01:35:02.052Z,2.5
2022-11-20T01:36:12.168Z,2.6
2022-11-20T01:37:22.283Z,2.5
2022-11-20T01:38:32.404Z,2.5
2022-11-20T01:39:42.515Z,2.5
2022-11-20T01:40:52.636Z,2.4
2022-11-20T01:42:02.756Z,2.5
2022-11-20T01:43:11.892Z,2.5
2022-11-20T01:44:22.016Z,2.5
2022-11-20T01:45:32.117Z,2.4
2022-11-20T01:46:42.246Z,2.3
2022-11-20T01:47:52.371Z,2.3
2022-11-20T01:49:02.476Z,2.4
2022-11-20T01:50:12.600Z,2.4
2022-11-20T01:51:21.748Z,2.4
2022-11-20T01:52:30.881Z,2.3
2022-11-20T01:53:41.004Z,2.3
2022-11-20T01:54:50.144Z,2.2
2022-11-20T01:55:59.283Z,2.2
2022-11-20T01:57:09.393Z,2.3
2022-11-20T01:58:19.508Z,2.2
2022-11-20T01:59:29.634Z,2.2
2022-11-20T02:00:39.752Z,2.2
2022-11-20T02:01:49.876Z,2.2
2022-11-20T02:02:59.980Z,2.3
2022-11-20T02:04:10.105Z,2.3
2022-11-20T02:05:20.230Z,2.3
2022-11-20T02:06:30.347Z,2.3
2022-11-20T02:07:40.459Z,2.3
2022-11-20T02:08:50.586Z,2.2
2022-11-20T02:10:00.689Z,2.2
2022-11-20T02:11:09.824Z,2.2
2022-11-20T02:12:19.950Z,2.2
2022-11-20T02:13:30.076Z,2.1
2022-11-20T02:14:40.179Z,2.1
2022-11-20T02:15:50.294Z,2.1
2022-11-20T02:17:00.429Z,2.1
2022-11-20T02:18:10.547Z,2.1
2022-11-20T02:19:20.664Z,2
2022-11-20T02:20:30.772Z,2.1
2022-11-20T02:21:40.893Z,2
2022-11-20T02:22:51.019Z,2
2022-11-20T02:24:01.144Z,1.9
2022-11-20T02:25:11.252Z,2
2022-11-20T02:26:20.382Z,2
2022-11-20T02:27:30.654Z,2
2022-11-20T02:28:39.782Z,2.1
2022-11-20T02:29:50.044Z,2
2022-11-20T02:30:59.189Z,2
2022-11-20T02:32:09.316Z,2
2022-11-20T02:33:19.420Z,2
2022-11-20T02:34:29.540Z,2
2022-11-20T02:35:39.668Z,2
2022-11-20T02:36:49.786Z,2
2022-11-20T02:37:59.890Z,2
2022-11-20T02:39:10.010Z,1.9
2022-11-20T02:40:20.135Z,1.9
2022-11-20T02:41:30.259Z,1.8
2022-11-20T02:42:40.382Z,1.9
2022-11-20T02:43:50.491Z,1.9
2022-11-20T02:45:00.608Z,1.9
2022-11-20T02:46:09.754Z,1.9
2022-11-20T02:47:19.859Z,1.9
2022-11-20T02:48:29.987Z,1.9
2022-11-20T02:49:40.096Z,2
2022-11-20T02:50:50.214Z,2
2022-11-20T02:52:00.343Z,2
2022-11-20T02:53:10.466Z,1.9
2022-11-20T02:54:20.572Z,1.9
2022-11-20T02:55:30.695Z,1.9
2022-11-20T02:56:40.823Z,1.9
2022-11-20T02:57:50.935Z,1.9
2022-11-20T02:59:01.047Z,1.9
2022-11-20T03:00:11.164Z,1.9
2022-11-20T03:01:20.313Z,1.8
2022-11-20T03:02:30.416Z,1.9
2022-11-20T03:03:40.541Z,2
2022-11-20T03:04:50.650Z,2
2022-11-20T03:06:00.773Z,1.9
2022-11-20T03:07:10.898Z,1.9
2022-11-20T03:08:21.012Z,1.9
2022-11-20T03:09:31.130Z,1.9
2022-11-20T03:10:41.247Z,1.9
2022-11-20T03:11:51.367Z,1.9
2022-11-20T03:13:01.489Z,1.9
2022-11-20T03:14:11.615Z,1.8
2022-11-20T03:15:21.722Z,1.8
2022-11-20T03:16:31.985Z,1.8
2022-11-20T03:17:41.129Z,1.9
2022-11-20T03:18:51.240Z,1.8
2022-11-20T03:20:00.380Z,1.9
2022-11-20T03:21:09.533Z,1.9
2022-11-20T03:22:19.642Z,1.8
2022-11-20T03:23:29.753Z,1.9
2022-11-20T03:24:39.876Z,1.9
2022-11-20T03:25:50.002Z,1.9
2022-11-20T03:27:00.113Z,1.9
2022-11-20T03:28:10.233Z,1.8
2022-11-20T03:29:20.364Z,1.8
2022-11-20T03:30:30.472Z,1.9
2022-11-20T03:31:40.600Z,1.9
2022-11-20T03:32:50.705Z,1.9
2022-11-20T03:34:00.833Z,1.9
2022-11-20T03:35:10.943Z,1.9
2022-11-20T03:36:20.074Z,1.9
2022-11-20T03:37:30.197Z,2
2022-11-20T03:38:40.319Z,2
2022-11-20T03:39:50.448Z,2
2022-11-20T03:41:00.549Z,2
2022-11-20T03:42:10.677Z,2
2022-11-20T03:43:20.789Z,2
2022-11-20T03:44:30.917Z,2
2022-11-20T03:45:41.036Z,1.9
2022-11-20T03:46:51.157Z,1.9
2022-11-20T03:48:01.261Z,1.9
2022-11-20T03:50:21.512Z,1.9
2022-11-20T03:51:30.644Z,1.9
2022-11-20T03:52:40.766Z,1.9
2022-11-20T03:53:50.876Z,1.9
2022-11-20T03:55:00.997Z,1.8
2022-11-20T03:56:11.120Z,1.8
2022-11-20T03:57:21.245Z,1.9
2022-11-20T03:58:31.354Z,1.8
2022-11-20T03:59:41.470Z,1.8
2022-11-20T04:00:51.584Z,1.7
2022-11-20T04:02:01.708Z,1.7
2022-11-20T04:03:10.847Z,1.7
2022-11-20T04:04:19.985Z,1.6
2022-11-20T04:05:30.110Z,1.6
2022-11-20T04:06:40.231Z,1.6
2022-11-20T04:07:50.338Z,1.6
2022-11-20T04:09:00.460Z,1.8
2022-11-20T04:10:09.601Z,1.8
2022-11-20T04:11:18.741Z,1.9
2022-11-20T04:12:28.870Z,1.9
2022-11-20T04:13:38.976Z,1.8
2022-11-20T04:14:49.106Z,1.8
2022-11-20T04:15:59.215Z,1.8
2022-11-20T04:17:09.340Z,1.8
2022-11-20T04:18:19.451Z,1.8
2022-11-20T04:19:29.574Z,1.8
2022-11-20T04:20:39.692Z,1.8
2022-11-20T04:21:49.816Z,1.8
2022-11-20T04:22:59.939Z,1.8
2022-11-20T04:24:10.044Z,1.8
2022-11-20T04:25:20.161Z,1.7
2022-11-20T04:26:29.300Z,1.7
2022-11-20T04:27:39.419Z,1.7
2022-11-20T04:28:49.540Z,1.7
2022-11-20T04:29:59.662Z,1.7
2022-11-20T04:31:09.774Z,1.7
2022-11-20T04:32:19.895Z,1.7
2022-11-20T04:33:30.021Z,1.6
2022-11-20T04:34:40.127Z,1.6
2022-11-20T04:35:50.251Z,1.6
2022-11-20T04:37:00.374Z,1.6
2022-11-20T04:38:10.499Z,1.6
2022-11-20T04:39:20.603Z,1.6
2022-11-20T04:40:30.725Z,1.6
2022-11-20T04:41:39.868Z,1.5
2022-11-20T04:42:49.991Z,1.5
2022-11-20T04:44:00.095Z,1.5
2022-11-20T04:46:20.332Z,1.5
2022-11-20T04:47:30.453Z,1.5
2022-11-20T04:48:40.579Z,1.5
2022-11-20T04:49:50.694Z,1.6
2022-11-20T04:51:00.822Z,1.6
2022-11-20T04:52:10.931Z,1.6
2022-11-20T04:53:21.056Z,1.6
2022-11-20T04:54:31.159Z,1.6
2022-11-20T04:55:41.282Z,1.6
2022-11-20T04:56:51.524Z,1.6
2022-11-20T04:58:01.637Z,1.6
2022-11-20T05:00:21.879Z,1.6
2022-11-20T05:01:32.002Z,1.6
2022-11-20T05:02:42.120Z,1.6
2022-11-20T05:03:52.243Z,1.6
2022-11-20T05:05:02.367Z,1.6
2022-11-20T05:06:12.474Z,1.6
2022-11-20T05:07:22.602Z,1.6
2022-11-20T05:08:32.709Z,1.5
2022-11-20T05:09:42.841Z,1.5
2022-11-20T05:10:52.962Z,1.4
2022-11-20T05:12:02.093Z,1.4
2022-11-20T05:13:12.204Z,1.4
2022-11-20T05:15:32.444Z,1.4
2022-11-20T05:16:42.568Z,1.4
2022-11-20T05:17:52.680Z,1.5
2022-11-20T05:19:01.820Z,1.5
2022-11-20T05:20:11.946Z,1.5
2022-11-20T05:21:22.058Z,1.5
2022-11-20T05:22:32.184Z,1.5
2022-11-20T05:23:42.300Z,1.4
2022-11-20T05:24:52.422Z,1.4
2022-11-20T05:26:02.528Z,1.5
2022-11-20T05:27:12.648Z,1.5
2022-11-20T05:28:22.768Z,1.5
2022-11-20T05:29:32.882Z,1.5
2022-11-20T05:30:43.005Z,1.5
2022-11-20T05:31:53.136Z,1.4
2022-11-20T05:33:03.239Z,1.5
2022-11-20T05:34:12.000Z,1.4
2022-11-20T05:35:21.532Z,1.4
2022-11-20T05:36:31.758Z,1.4
2022-11-20T05:37:41.885Z,1.4
2022-11-20T05:38:52.012Z,1.4
2022-11-20T05:40:01.155Z,1.4
2022-11-20T05:41:10.287Z,1.3
2022-11-20T05:42:20.396Z,1.3
2022-11-20T05:43:30.512Z,1.3
2022-11-20T05:44:40.637Z,1.3
2022-11-20T05:45:50.754Z,1.3
2022-11-20T05:47:00.883Z,1.3
2022-11-20T05:48:11.004Z,1.3
2022-11-20T05:49:21.110Z,1.3
2022-11-20T05:50:31.241Z,1.4
2022-11-20T05:51:41.357Z,1.4
2022-11-20T05:52:51.468Z,1.4
2022-11-20T05:54:01.587Z,1.3
2022-11-20T05:55:11.713Z,1.4
2022-11-20T05:56:21.951Z,1.4
2022-11-20T05:57:32.066Z,1.3
2022-11-20T05:58:42.187Z,1.4
2022-11-20T05:59:52.309Z,1.4
2022-11-20T06:01:02.411Z,1.3
2022-11-20T06:02:12.539Z,1.3
2022-11-20T06:03:22.662Z,1.2
2022-11-20T06:04:32.769Z,1.2
2022-11-20T06:05:42.893Z,1.2
2022-11-20T06:06:53.023Z,1.2
2022-11-20T06:08:03.143Z,1.2
2022-11-20T06:09:13.256Z,1.2
2022-11-20T06:10:23.369Z,1.2
2022-11-20T06:11:32.499Z,1.3
2022-11-20T06:12:42.625Z,1.3
2022-11-20T06:13:52.750Z,1.3
2022-11-20T06:15:02.861Z,1.3
2022-11-20T06:16:12.988Z,1.4
2022-11-20T06:17:23.099Z,1.4
2022-11-20T06:18:33.225Z,1.3
2022-11-20T06:19:43.341Z,1.3
2022-11-20T06:20:53.447Z,1.3
2022-11-20T06:22:03.572Z,1.2
2022-11-20T06:23:13.698Z,1.2
2022-11-20T06:24:23.804Z,1.2
2022-11-20T06:25:33.935Z,1.2
2022-11-20T06:26:43.067Z,1.1
2022-11-20T06:27:53.174Z,1.1
2022-11-20T06:29:03.294Z,1.1
2022-11-20T06:30:13.426Z,1.2
2022-11-20T06:31:23.529Z,1.2
2022-11-20T06:32:33.651Z,1.1
2022-11-20T06:33:43.781Z,1.2
2022-11-20T06:34:52.931Z,1.2
2022-11-20T06:36:02.065Z,1.2
2022-11-20T06:37:12.181Z,1.2
2022-11-20T06:38:22.299Z,1.1
2022-11-20T06:39:31.440Z,1.1
2022-11-20T06:40:40.571Z,1.2
2022-11-20T06:41:50.700Z,1.2
2022-11-20T06:43:00.804Z,1.2
2022-11-20T06:44:10.925Z,1.2
2022-11-20T06:45:21.046Z,1.2
2022-11-20T06:46:31.169Z,1.2
2022-11-20T06:47:41.293Z,1.3
2022-11-20T06:48:51.397Z,1.3
2022-11-20T06:50:01.523Z,1.2
2022-11-20T06:51:11.649Z,1.2
2022-11-20T06:52:21.771Z,1.2
2022-11-20T06:53:31.878Z,1.2
2022-11-20T06:54:41.998Z,1.3
2022-11-20T06:55:52.245Z,1.2
2022-11-20T06:57:02.357Z,1.2
2022-11-20T06:58:12.484Z,1.2
2022-11-20T06:59:22.588Z,1.2
2022-11-20T07:00:32.722Z,1.2
2022-11-20T07:01:42.825Z,1.3
2022-11-20T07:02:52.943Z,1.2
2022-11-20T07:04:03.226Z,1.3
2022-11-20T07:06:22.469Z,1.3
2022-11-20T07:07:31.622Z,1.4
2022-11-20T07:08:40.756Z,1.4
2022-11-20T07:09:50.863Z,1.4
2022-11-20T07:11:00.994Z,1.4
2022-11-20T07:12:11.110Z,1.4
2022-11-20T07:13:21.220Z,1.5
2022-11-20T07:14:31.348Z,1.5
2022-11-20T07:15:41.459Z,1.4
2022-11-20T07:16:51.583Z,1.4
2022-11-20T07:18:01.706Z,1.5
2022-11-20T07:19:11.828Z,1.5
2022-11-20T07:20:21.932Z,1.5
2022-11-20T07:21:32.054Z,1.5
2022-11-20T07:22:42.178Z,1.5
2022-11-20T07:23:52.423Z,1.5
2022-11-20T07:25:02.528Z,1.5
2022-11-20T07:26:12.659Z,1.5
2022-11-20T07:27:22.778Z,1.5
2022-11-20T07:28:32.898Z,1.5
2022-11-20T07:29:43.003Z,1.5
2022-11-20T07:30:53.129Z,1.5
2022-11-20T07:33:12.393Z,1.5
2022-11-20T07:34:21.528Z,1.5
2022-11-20T07:35:31.771Z,1.5
2022-11-20T07:36:41.899Z,1.5
2022-11-20T07:37:51.034Z,1.5
2022-11-20T07:39:00.172Z,1.6
2022-11-20T07:41:20.412Z,1.5
2022-11-20T07:42:30.524Z,1.5
2022-11-20T07:43:40.644Z,1.6
2022-11-20T07:44:50.765Z,1.6
2022-11-20T07:46:00.891Z,1.6
2022-11-20T07:47:11.000Z,1.7
2022-11-20T07:48:21.126Z,1.7
2022-11-20T07:49:31.234Z,1.7
2022-11-20T07:50:41.354Z,1.7
2022-11-20T07:51:51.480Z,1.7
2022-11-20T07:53:01.601Z,1.8
2022-11-20T07:54:10.730Z,1.7
2022-11-20T07:55:20.857Z,1.7
2022-11-20T07:56:30.978Z,1.7
2022-11-20T07:57:41.091Z,1.8
2022-11-20T07:58:51.218Z,1.8
2022-11-20T08:00:01.322Z,1.8
2022-11-20T08:01:11.447Z,1.7
2022-11-20T08:02:21.554Z,1.7
2022-11-20T08:03:30.713Z,1.8
2022-11-20T08:04:39.835Z,1.8
2022-11-20T08:05:48.996Z,1.8
2022-11-20T08:06:59.220Z,1.8
2022-11-20T08:08:09.344Z,1.9
2022-11-20T08:09:19.456Z,1.9
2022-11-20T08:10:29.578Z,2
2022-11-20T08:11:39.696Z,2
2022-11-20T08:12:49.819Z,2
2022-11-20T08:13:59.939Z,2.1
2022-11-20T08:15:10.059Z,2.1
2022-11-20T08:16:20.175Z,2.1
2022-11-20T08:17:30.300Z,2.1
2022-11-20T08:18:40.422Z,2.1
2022-11-20T08:19:50.528Z,2.1
2022-11-20T08:21:00.651Z,2.1
2022-11-20T08:22:09.793Z,2.1
2022-11-20T08:23:19.903Z,2.1
2022-11-20T08:24:30.021Z,2.1
2022-11-20T08:25:40.142Z,2.1
2022-11-20T08:26:50.267Z,2.2
2022-11-20T08:28:00.370Z,2.2
2022-11-20T08:29:10.494Z,2.2
2022-11-20T08:30:19.648Z,2.3
2022-11-20T08:31:28.776Z,2.3
2022-11-20T08:32:38.892Z,2.4
2022-11-20T08:33:49.021Z,2.5
2022-11-20T08:34:58.155Z,2.4
2022-11-20T08:36:08.406Z,2.4
2022-11-20T08:37:18.514Z,2.4
2022-11-20T08:38:28.643Z,2.4
2022-11-20T08:39:38.752Z,2.3
2022-11-20T08:40:48.880Z,2.3
2022-11-20T08:41:58.992Z,2.4
2022-11-20T08:44:19.234Z,2.4
2022-11-20T08:45:29.336Z,2.5
2022-11-20T08:46:39.467Z,2.5
2022-11-20T08:47:49.590Z,2.5
2022-11-20T08:48:59.693Z,2.5
2022-11-20T08:50:09.829Z,2.5
2022-11-20T08:51:18.961Z,2.6
2022-11-20T08:52:29.080Z,2.5
2022-11-20T08:53:39.199Z,2.6
2022-11-20T08:54:49.312Z,2.6
2022-11-20T08:55:59.435Z,2.6
2022-11-20T08:58:19.664Z,2.6
2022-11-20T08:59:28.816Z,2.6
2022-11-20T09:00:37.949Z,2.5
2022-11-20T09:01:48.058Z,2.5
2022-11-20T09:02:58.191Z,2.5
2022-11-20T09:04:08.296Z,2.5
2022-11-20T09:05:18.422Z,2.6
2022-11-20T09:06:28.544Z,2.6
2022-11-20T09:07:38.649Z,2.6
2022-11-20T09:08:48.771Z,2.5
2022-11-20T09:09:58.892Z,2.6
2022-11-20T09:11:09.013Z,2.7
2022-11-20T09:12:18.156Z,2.8
2022-11-20T09:13:27.290Z,2.8
2022-11-20T09:14:37.416Z,2.8
2022-11-20T09:15:47.525Z,2.7
2022-11-20T09:16:57.648Z,2.7
2022-11-20T09:18:07.760Z,2.8
2022-11-20T09:19:17.892Z,2.7
2022-11-20T09:20:28.011Z,2.6
2022-11-20T09:21:38.132Z,2.5
2022-11-20T09:22:48.238Z,2.5
2022-11-20T09:23:58.368Z,2.5
2022-11-20T09:25:08.472Z,2.6
2022-11-20T09:26:18.599Z,2.6
2022-11-20T09:27:28.709Z,2.6
2022-11-20T09:28:37.844Z,2.5
2022-11-20T09:29:47.972Z,2.5
2022-11-20T09:30:58.080Z,2.5
2022-11-20T09:33:18.314Z,2.5
2022-11-20T09:34:28.440Z,2.5
2022-11-20T09:35:38.568Z,2.6
2022-11-20T09:36:48.671Z,2.5
2022-11-20T09:37:57.831Z,2.5
2022-11-20T09:39:06.950Z,2.6
2022-11-20T09:40:17.078Z,2.6
2022-11-20T09:41:26.230Z,2.6
2022-11-20T09:42:35.349Z,2.5
2022-11-20T09:43:45.477Z,2.6
2022-11-20T09:44:55.592Z,2.6
2022-11-20T09:46:05.715Z,2.7
2022-11-20T09:47:15.838Z,2.7
2022-11-20T09:48:25.946Z,2.7
2022-11-20T09:49:36.060Z,2.6
2022-11-20T09:50:46.173Z,2.7
2022-11-20T09:51:56.306Z,2.8
2022-11-20T09:55:26.646Z,3.2
2022-11-20T09:56:35.801Z,3.3
2022-11-20T09:57:44.930Z,3.6
2022-11-20T09:58:55.053Z,3.7
2022-11-20T10:00:05.176Z,3.7
2022-11-20T10:01:15.283Z,3.7
2022-11-20T10:02:25.413Z,3.9
2022-11-20T10:03:35.520Z,3.8
2022-11-20T10:04:45.646Z,3.9
2022-11-20T10:05:55.770Z,3.7
2022-11-20T10:07:05.874Z,3.6
2022-11-20T10:08:16.004Z,3.5
2022-11-20T10:09:25.140Z,3.7
2022-11-20T10:10:34.275Z,3.7
2022-11-20T10:11:44.393Z,3.7
2022-11-20T10:12:54.520Z,3.8
2022-11-20T10:14:04.624Z,4.1
2022-11-20T10:15:14.750Z,4.2
2022-11-20T10:16:24.868Z,4.3
2022-11-20T10:17:34.982Z,4.4
2022-11-20T10:18:45.105Z,4.4
2022-11-20T10:19:55.213Z,4.3
2022-11-20T10:21:05.334Z,4.5
2022-11-20T10:22:15.465Z,4.6
2022-11-20T10:23:25.571Z,4.8
2022-11-20T10:24:35.696Z,4.7
2022-11-20T10:25:45.926Z,4.7
2022-11-20T10:26:56.060Z,4.8
2022-11-20T10:30:26.405Z,4.5
2022-11-20T10:31:35.542Z,4.7
2022-11-20T10:32:44.680Z,4.6
2022-11-20T10:33:54.809Z,4.3
2022-11-20T10:35:04.918Z,4.1
2022-11-20T10:36:15.034Z,3.9
2022-11-20T10:37:25.160Z,4.1
2022-11-20T10:38:35.266Z,4.1
2022-11-20T10:39:45.397Z,4.2
2022-11-20T10:40:55.507Z,4.3
2022-11-20T10:42:05.631Z,4.4
2022-11-20T10:43:15.741Z,4.4
2022-11-20T10:44:24.885Z,4.4
2022-11-20T10:45:35.124Z,4.3
2022-11-20T10:46:45.249Z,4.2
2022-11-20T10:47:55.360Z,4.2
2022-11-20T10:49:05.480Z,4.2
2022-11-20T10:50:15.606Z,4.2
2022-11-20T10:51:25.731Z,4.1
2022-11-20T10:52:35.829Z,4.1
2022-11-20T10:53:45.960Z,4
2022-11-20T10:54:56.085Z,3.9
2022-11-20T10:57:16.316Z,3.8
2022-11-20T10:58:26.426Z,3.8
2022-11-20T10:59:36.554Z,3.7
2022-11-20T11:00:45.691Z,3.8
2022-11-20T11:01:55.795Z,3.7
2022-11-20T11:03:05.923Z,3.7
2022-11-20T11:05:26.158Z,3.7
2022-11-20T11:06:36.426Z,3.8
2022-11-20T11:07:46.653Z,3.8
2022-11-20T11:08:56.780Z,3.9
2022-11-20T11:11:17.012Z,4.2
2022-11-20T11:12:27.136Z,4.1
2022-11-20T11:13:37.247Z,4
2022-11-20T11:14:47.373Z,4.2
2022-11-20T11:15:57.485Z,4
2022-11-20T11:17:07.596Z,4.1
2022-11-20T11:18:17.724Z,4
2022-11-20T11:19:27.834Z,3.9
2022-11-20T11:20:37.952Z,3.7
2022-11-20T11:21:48.078Z,3.9
2022-11-20T11:22:57.206Z,4
2022-11-20T11:24:07.326Z,4.1
2022-11-20T11:25:17.437Z,4.1
2022-11-20T11:26:27.569Z,4.2
2022-11-20T11:27:37.680Z,4.1
2022-11-20T11:28:47.800Z,4.1
2022-11-20T11:29:57.922Z,3.8
2022-11-20T11:31:08.046Z,4
2022-11-20T11:32:17.188Z,4.1
2022-11-20T11:33:26.315Z,4.1
2022-11-20T11:34:36.428Z,4.1
2022-11-20T11:35:46.695Z,4.2
2022-11-20T11:36:55.833Z,4.3
2022-11-20T11:38:05.959Z,4.3
2022-11-20T11:39:16.062Z,4.5
2022-11-20T11:40:26.184Z,4.5
2022-11-20T11:41:36.315Z,4.3
2022-11-20T11:42:46.422Z,4.1
2022-11-20T11:43:56.550Z,3.9
2022-11-20T11:45:06.663Z,3.9
2022-11-20T11:46:16.782Z,3.8
2022-11-20T11:47:26.889Z,3.7
2022-11-20T11:48:37.016Z,3.6
2022-11-20T11:49:47.137Z,3.6
2022-11-20T11:50:57.245Z,3.7
2022-11-20T11:52:06.378Z,3.6
2022-11-20T11:53:16.497Z,3.7
2022-11-20T11:54:26.610Z,3.8
2022-11-20T11:55:36.736Z,3.9
2022-11-20T11:56:46.860Z,4
2022-11-20T11:57:56.967Z,4
2022-11-20T11:59:07.088Z,4.1
2022-11-20T12:00:16.246Z,4.2
2022-11-20T12:01:25.365Z,4.3
2022-11-20T12:02:35.481Z,4.2
2022-11-20T12:03:45.607Z,4
2022-11-20T12:04:54.758Z,3.9
2022-11-20T12:06:04.997Z,3.9
2022-11-20T12:07:15.116Z,3.7
2022-11-20T12:08:25.233Z,3.8
2022-11-20T12:09:35.343Z,3.9
2022-11-20T12:10:45.464Z,4
2022-11-20T12:11:55.582Z,4.2
2022-11-20T12:13:05.707Z,4.4
2022-11-20T12:14:15.824Z,4.6
2022-11-20T12:15:25.929Z,4.3
2022-11-20T12:16:36.050Z,4.4
2022-11-20T12:17:46.162Z,4.4
2022-11-20T12:18:56.287Z,4.5
2022-11-20T12:20:06.413Z,4.6
2022-11-20T12:21:15.532Z,4.6
2022-11-20T12:22:25.653Z,4.6
2022-11-20T12:23:35.772Z,4.5
2022-11-20T12:24:45.897Z,4.3
2022-11-20T12:25:56.021Z,4.2
2022-11-20T12:27:06.137Z,4.2
2022-11-20T12:28:16.240Z,4.3
2022-11-20T12:29:25.392Z,4.1
2022-11-20T12:30:34.529Z,3.9
2022-11-20T12:31:43.671Z,3.8
2022-11-20T12:32:52.813Z,3.9
2022-11-20T12:34:02.931Z,3.7
2022-11-20T12:35:13.041Z,3.7
2022-11-20T12:36:23.152Z,3.9
2022-11-20T12:37:33.284Z,4
2022-11-20T12:38:43.390Z,3.9
2022-11-20T12:39:53.520Z,4.1
2022-11-20T12:41:03.623Z,4.2
2022-11-20T12:42:13.745Z,4.3
2022-11-20T12:43:23.873Z,4.1
2022-11-20T12:44:33.984Z,4
2022-11-20T12:45:44.106Z,4.2
2022-11-20T12:46:54.229Z,4.2
2022-11-20T12:48:03.347Z,4.3
2022-11-20T12:49:13.471Z,4.4
2022-11-20T12:50:23.595Z,4.6
2022-11-20T12:51:33.707Z,4.6
2022-11-20T12:52:43.836Z,4.5
2022-11-20T12:53:53.951Z,4.3
2022-11-20T12:55:04.055Z,4.3
2022-11-20T12:57:23.319Z,4.5
2022-11-20T12:58:33.599Z,4.6
2022-11-20T12:59:42.719Z,4.7
2022-11-20T13:00:51.874Z,4.5
2022-11-20T13:02:01.010Z,4.6
2022-11-20T13:03:11.130Z,4.6
2022-11-20T13:04:21.248Z,4.8
2022-11-20T13:05:31.366Z,4.8
2022-11-20T13:06:41.469Z,4.9
2022-11-20T13:07:50.610Z,4.9
2022-11-20T13:09:00.731Z,4.7
2022-11-20T13:10:10.852Z,4.7
2022-11-20T13:11:20.960Z,4.7
2022-11-20T13:12:31.092Z,4.6
2022-11-20T13:13:41.208Z,4.6
2022-11-20T13:14:51.317Z,4.7
2022-11-20T13:16:01.442Z,4.7
2022-11-20T13:17:11.555Z,4.7
2022-11-20T13:18:21.677Z,4.5
2022-11-20T13:19:31.787Z,4.4
2022-11-20T13:20:41.913Z,4.3
2022-11-20T13:21:52.028Z,4
2022-11-20T13:23:01.164Z,3.5
2022-11-20T13:24:11.293Z,3.1
2022-11-20T13:25:21.403Z,2.8
2022-11-20T13:26:31.512Z,2.7
2022-11-20T13:27:41.646Z,2.7
2022-11-20T13:28:51.750Z,2.8
2022-11-20T13:30:00.910Z,2.8
2022-11-20T13:31:10.026Z,2.7
2022-11-20T13:32:19.180Z,2.6
2022-11-20T13:33:28.319Z,2.6
2022-11-20T13:34:38.426Z,2.6
2022-11-20T13:35:48.553Z,2.5
2022-11-20T13:38:08.781Z,2.4
2022-11-20T13:39:18.907Z,2.3
2022-11-20T13:40:29.032Z,2.3
2022-11-20T13:41:39.134Z,2.3
2022-11-20T13:42:49.257Z,2.3
2022-11-20T13:43:59.383Z,2.3
2022-11-20T13:45:09.492Z,2.2
2022-11-20T13:46:19.619Z,2.3
2022-11-20T13:47:29.729Z,2.1
2022-11-20T13:48:39.963Z,2.1
2022-11-20T13:49:50.087Z,2.1
2022-11-20T13:51:00.218Z,2.2
2022-11-20T13:52:10.324Z,2.2
2022-11-20T13:53:20.452Z,2.3
2022-11-20T13:54:30.556Z,2.3
2022-11-20T13:55:40.684Z,2.3
2022-11-20T13:56:50.807Z,2.3
2022-11-20T13:57:59.947Z,2.4
2022-11-20T13:59:10.187Z,2.4
2022-11-20T14:00:20.301Z,2.4
2022-11-20T14:01:30.426Z,2.4
2022-11-20T14:02:40.532Z,2.5
2022-11-20T14:03:50.801Z,2.4
2022-11-20T14:04:59.938Z,2.4
2022-11-20T14:06:10.056Z,2.4
2022-11-20T14:07:20.175Z,2.4
2022-11-20T14:09:40.402Z,2.3
2022-11-20T14:10:50.540Z,2.4
2022-11-20T14:12:00.647Z,2.3
2022-11-20T14:13:10.772Z,2.4
2022-11-20T14:14:20.875Z,2.4
2022-11-20T14:15:30.998Z,2.4
2022-11-20T14:16:41.130Z,2.3
2022-11-20T14:17:51.240Z,2.3
2022-11-20T14:19:01.364Z,2.3
2022-11-20T14:20:10.482Z,2.3
2022-11-20T14:21:20.611Z,2.3
2022-11-20T14:22:30.731Z,2.2
2022-11-20T14:23:40.849Z,2.2
2022-11-20T14:24:50.960Z,2.1
2022-11-20T14:26:01.086Z,2
2022-11-20T14:27:11.193Z,2
2022-11-20T14:28:21.326Z,1.9
2022-11-20T14:29:30.466Z,1.9
2022-11-20T14:30:40.695Z,1.8
2022-11-20T14:31:49.856Z,1.8
2022-11-20T14:32:58.990Z,1.8
2022-11-20T14:34:09.097Z,1.7
2022-11-20T14:35:19.222Z,1.6
2022-11-20T14:36:29.328Z,1.6
2022-11-20T14:37:39.000Z,1.5
2022-11-20T14:38:49.576Z,1.5
2022-11-20T14:39:59.684Z,1.5
2022-11-20T14:41:09.805Z,1.5
2022-11-20T14:42:19.932Z,1.6
2022-11-20T14:43:30.038Z,1.6
2022-11-20T14:44:40.167Z,1.6
2022-11-20T14:45:50.277Z,1.5
2022-11-20T14:47:00.404Z,1.4
2022-11-20T14:48:09.538Z,1.4
2022-11-20T14:49:19.647Z,1.4
2022-11-20T14:50:29.774Z,1.5
2022-11-20T14:51:39.882Z,1.6
2022-11-20T14:52:50.009Z,1.6
2022-11-20T14:54:00.132Z,1.6
2022-11-20T14:56:20.371Z,1.6
2022-11-20T14:57:29.510Z,1.5
2022-11-20T14:58:38.639Z,1.5
2022-11-20T14:59:47.780Z,1.5
2022-11-20T15:00:58.035Z,1.4
2022-11-20T15:02:08.147Z,1.5
2022-11-20T15:03:18.273Z,1.5
2022-11-20T15:04:28.380Z,1.5
2022-11-20T15:05:38.511Z,1.5
2022-11-20T15:06:48.620Z,1.4
2022-11-20T15:07:58.743Z,1.5
2022-11-20T15:09:08.851Z,1.4
2022-11-20T15:10:18.967Z,1.4
2022-11-20T15:11:29.094Z,1.4
2022-11-20T15:12:39.216Z,1.2
2022-11-20T15:13:49.322Z,1.1
2022-11-20T15:14:59.448Z,1
2022-11-20T15:16:08.582Z,0.8
2022-11-20T15:17:18.696Z,0.8
2022-11-20T15:18:28.821Z,0.8
2022-11-20T15:19:38.946Z,0.7
2022-11-20T15:20:49.052Z,0.7
2022-11-20T15:21:59.176Z,0.6
2022-11-20T15:23:09.285Z,0.6
2022-11-20T15:24:19.411Z,0.5
2022-11-20T15:25:29.536Z,0.5
2022-11-20T15:26:39.652Z,0.5
2022-11-20T15:27:49.767Z,0.5
2022-11-20T15:28:59.887Z,0.4
2022-11-20T15:30:09.998Z,0.3
2022-11-20T15:31:20.243Z,0.3
2022-11-20T15:32:30.355Z,0.2
2022-11-20T15:33:40.488Z,0.2
2022-11-20T15:34:50.597Z,0.1
2022-11-20T15:36:00.724Z,0.1
2022-11-20T15:37:10.832Z,0.2
2022-11-20T15:38:20.959Z,0.2
2022-11-20T15:39:31.070Z,0.2
2022-11-20T15:40:41.195Z,0.1
2022-11-20T15:41:51.305Z,0.1
2022-11-20T15:43:01.426Z,0.1
2022-11-20T15:44:11.546Z,0
2022-11-20T15:45:21.676Z,-0.1
2022-11-20T15:46:31.916Z,-0.1
2022-11-20T15:47:42.025Z,-0.1
2022-11-20T15:48:52.145Z,-0.1
2022-11-20T15:50:02.269Z,0
2022-11-20T15:51:12.390Z,0.1
2022-11-20T15:52:22.501Z,0.1
2022-11-20T15:53:32.619Z,0.1
2022-11-20T15:54:42.742Z,0.2
2022-11-20T15:55:52.866Z,0.1
2022-11-20T15:57:02.968Z,0.1
2022-11-20T15:58:13.088Z,0.1
2022-11-20T15:59:23.214Z,0.2
2022-11-20T16:00:33.325Z,0.2
2022-11-20T16:01:43.580Z,0.3
2022-11-20T16:02:53.687Z,0.3
2022-11-20T16:04:03.807Z,0.3
2022-11-20T16:05:13.935Z,0.4
2022-11-20T16:06:24.054Z,0.4
2022-11-20T16:07:34.160Z,0.5
2022-11-20T16:08:44.278Z,0.5
2022-11-20T16:09:54.413Z,0.5
2022-11-20T16:11:04.518Z,0.5
2022-11-20T16:12:14.641Z,0.6
2022-11-20T16:13:24.749Z,0.6
2022-11-20T16:14:34.876Z,0.7
2022-11-20T16:15:45.002Z,0.7
2022-11-20T16:16:54.128Z,0.7
2022-11-20T16:18:04.257Z,0.7
2022-11-20T16:19:14.363Z,0.8
2022-11-20T16:20:24.483Z,0.8
2022-11-20T16:21:34.615Z,0.8
2022-11-20T16:22:44.718Z,0.8
2022-11-20T16:23:54.844Z,0.9
2022-11-20T16:25:04.966Z,0.9
2022-11-20T16:26:15.087Z,0.9
2022-11-20T16:27:25.205Z,0.8
2022-11-20T16:28:35.313Z,0.8
2022-11-20T16:29:45.442Z,0.8
2022-11-20T16:30:55.561Z,0.8
2022-11-20T16:32:04.684Z,0.8